sensor_id;sensor_type;location;lat;lon;timestamp;pressure;altitude;pressure_sealevel;temperature;humidity
55171;BME280;41060;47.510;8.680;2023-07-29T00:00:40;96712.75;;;23.51;49.97
55171;BME280;41060;47.510;8.680;2023-07-29T00:03:08;96713.91;;;23.68;49.51
55171;BME280;41060;47.510;8.680;2023-07-29T00:05:35;96718.69;;;23.79;49.03
55171;BME280;41060;47.510;8.680;2023-07-29T00:08:01;96717.66;;;23.80;48.94
55171;BME280;41060;47.510;8.680;2023-07-29T00:10:30;96717.81;;;23.85;48.95
55171;BME280;41060;47.510;8.680;2023-07-29T00:12:57;96725.13;;;23.78;49.09
55171;BME280;41060;47.510;8.680;2023-07-29T00:15:24;96724.25;;;23.20;50.50
55171;BME280;41060;47.510;8.680;2023-07-29T00:17:51;96728.81;;;22.80;51.34
55171;BME280;41060;47.510;8.680;2023-07-29T00:20:19;96730.66;;;22.92;51.20
55171;BME280;41060;47.510;8.680;2023-07-29T00:22:45;96722.16;;;22.89;50.98
55171;BME280;41060;47.510;8.680;2023-07-29T00:25:15;96721.50;;;23.07;50.40
55171;BME280;41060;47.510;8.680;2023-07-29T00:27:42;96712.59;;;23.26;49.88
55171;BME280;41060;47.510;8.680;2023-07-29T00:30:09;96720.72;;;23.19;50.42
55171;BME280;41060;47.510;8.680;2023-07-29T00:32:36;96718.00;;;22.99;50.83
55171;BME280;41060;47.510;8.680;2023-07-29T00:35:03;96716.31;;;22.39;52.42
55171;BME280;41060;47.510;8.680;2023-07-29T00:37:31;96716.72;;;22.23;52.74
55171;BME280;41060;47.510;8.680;2023-07-29T00:39:58;96707.84;;;22.49;51.88
55171;BME280;41060;47.510;8.680;2023-07-29T00:42:25;96705.38;;;22.74;50.98
55171;BME280;41060;47.510;8.680;2023-07-29T00:44:51;96708.84;;;23.00;50.34
55171;BME280;41060;47.510;8.680;2023-07-29T00:47:18;96698.47;;;23.17;50.21
55171;BME280;41060;47.510;8.680;2023-07-29T00:49:46;96693.03;;;23.30;49.79
55171;BME280;41060;47.510;8.680;2023-07-29T00:52:13;96688.25;;;23.39;49.45
55171;BME280;41060;47.510;8.680;2023-07-29T00:54:42;96693.59;;;23.52;48.81
55171;BME280;41060;47.510;8.680;2023-07-29T00:57:10;96697.31;;;23.64;48.52
55171;BME280;41060;47.510;8.680;2023-07-29T00:59:38;96698.09;;;23.71;48.22
55171;BME280;41060;47.510;8.680;2023-07-29T01:02:07;96695.41;;;23.78;48.19
55171;BME280;41060;47.510;8.680;2023-07-29T01:04:37;96664.88;;;23.64;48.04
55171;BME280;41060;47.510;8.680;2023-07-29T01:07:09;96692.00;;;23.89;47.85
55171;BME280;41060;47.510;8.680;2023-07-29T01:09:48;96701.56;;;23.92;47.67
55171;BME280;41060;47.510;8.680;2023-07-29T01:12:22;96699.28;;;23.89;47.75
55171;BME280;41060;47.510;8.680;2023-07-29T01:14:56;96693.69;;;23.84;47.72
55171;BME280;41060;47.510;8.680;2023-07-29T01:17:35;96689.13;;;23.84;47.62
55171;BME280;41060;47.510;8.680;2023-07-29T01:20:08;96686.63;;;23.83;47.62
55171;BME280;41060;47.510;8.680;2023-07-29T01:22:36;96693.25;;;23.35;49.10
55171;BME280;41060;47.510;8.680;2023-07-29T01:25:05;96680.81;;;23.28;49.09
55171;BME280;41060;47.510;8.680;2023-07-29T01:27:33;96696.31;;;23.46;48.78
55171;BME280;41060;47.510;8.680;2023-07-29T01:29:59;96686.75;;;23.50;48.49
55171;BME280;41060;47.510;8.680;2023-07-29T01:32:43;96682.69;;;23.14;50.21
55171;BME280;41060;47.510;8.680;2023-07-29T01:35:17;96696.84;;;22.96;50.18
55171;BME280;41060;47.510;8.680;2023-07-29T01:37:48;96682.06;;;23.06;49.74
55171;BME280;41060;47.510;8.680;2023-07-29T01:40:17;96693.47;;;23.27;49.52
55171;BME280;41060;47.510;8.680;2023-07-29T01:42:44;96690.53;;;23.42;49.10
55171;BME280;41060;47.510;8.680;2023-07-29T01:45:11;96688.66;;;23.43;48.58
55171;BME280;41060;47.510;8.680;2023-07-29T01:47:38;96683.91;;;23.31;48.81
55171;BME280;41060;47.510;8.680;2023-07-29T01:50:07;96682.44;;;23.29;49.06
55171;BME280;41060;47.510;8.680;2023-07-29T01:52:34;96686.22;;;23.15;49.11
55171;BME280;41060;47.510;8.680;2023-07-29T01:55:01;96687.88;;;23.16;49.08
55171;BME280;41060;47.510;8.680;2023-07-29T01:57:29;96722.78;;;22.64;50.65
55171;BME280;41060;47.510;8.680;2023-07-29T01:59:56;96723.78;;;22.31;51.61
55171;BME280;41060;47.510;8.680;2023-07-29T02:02:23;96687.31;;;22.54;51.30
55171;BME280;41060;47.510;8.680;2023-07-29T02:04:49;96688.13;;;22.81;50.60
55171;BME280;41060;47.510;8.680;2023-07-29T02:07:17;96687.72;;;22.71;51.23
55171;BME280;41060;47.510;8.680;2023-07-29T02:09:45;96676.03;;;22.18;53.25
55171;BME280;41060;47.510;8.680;2023-07-29T02:12:11;96662.13;;;22.14;52.70
55171;BME280;41060;47.510;8.680;2023-07-29T02:14:39;96664.47;;;22.50;51.95
55171;BME280;41060;47.510;8.680;2023-07-29T02:17:06;96659.69;;;22.72;51.28
55171;BME280;41060;47.510;8.680;2023-07-29T02:19:34;96659.25;;;22.88;50.84
55171;BME280;41060;47.510;8.680;2023-07-29T02:22:00;96660.50;;;22.99;50.55
55171;BME280;41060;47.510;8.680;2023-07-29T02:24:27;96660.25;;;23.07;50.40
55171;BME280;41060;47.510;8.680;2023-07-29T02:26:54;96649.25;;;23.15;49.97
55171;BME280;41060;47.510;8.680;2023-07-29T02:29:20;96657.38;;;23.09;50.50
55171;BME280;41060;47.510;8.680;2023-07-29T02:31:51;96658.00;;;23.11;50.42
55171;BME280;41060;47.510;8.680;2023-07-29T02:34:17;96658.81;;;23.18;50.06
55171;BME280;41060;47.510;8.680;2023-07-29T02:36:44;96656.13;;;23.11;50.35
55171;BME280;41060;47.510;8.680;2023-07-29T02:39:12;96663.22;;;22.73;52.01
55171;BME280;41060;47.510;8.680;2023-07-29T02:41:39;96663.00;;;22.74;51.31
55171;BME280;41060;47.510;8.680;2023-07-29T02:44:05;96655.09;;;22.79;51.39
55171;BME280;41060;47.510;8.680;2023-07-29T02:46:35;96651.56;;;22.92;50.79
55171;BME280;41060;47.510;8.680;2023-07-29T02:49:04;96649.91;;;22.84;51.56
55171;BME280;41060;47.510;8.680;2023-07-29T02:51:30;96664.03;;;22.73;51.47
55171;BME280;41060;47.510;8.680;2023-07-29T02:53:58;96667.78;;;22.79;51.30
55171;BME280;41060;47.510;8.680;2023-07-29T02:56:24;96680.22;;;22.40;52.63
55171;BME280;41060;47.510;8.680;2023-07-29T02:58:51;96682.69;;;22.15;53.32
55171;BME280;41060;47.510;8.680;2023-07-29T03:01:18;96673.16;;;22.39;52.31
55171;BME280;41060;47.510;8.680;2023-07-29T03:03:45;96670.09;;;22.62;52.06
55171;BME280;41060;47.510;8.680;2023-07-29T03:06:14;96679.81;;;22.83;51.24
55171;BME280;41060;47.510;8.680;2023-07-29T03:08:41;96699.94;;;22.93;50.91
55171;BME280;41060;47.510;8.680;2023-07-29T03:11:09;96706.16;;;23.00;50.85
55171;BME280;41060;47.510;8.680;2023-07-29T03:13:36;96690.00;;;23.14;50.38
55171;BME280;41060;47.510;8.680;2023-07-29T03:16:06;96681.91;;;22.68;52.43
55171;BME280;41060;47.510;8.680;2023-07-29T03:18:33;96695.88;;;21.91;54.48
55171;BME280;41060;47.510;8.680;2023-07-29T03:21:00;96651.22;;;21.68;54.73
55171;BME280;41060;47.510;8.680;2023-07-29T03:23:29;96674.16;;;22.18;53.42
55171;BME280;41060;47.510;8.680;2023-07-29T03:25:56;96670.06;;;22.49;52.55
55171;BME280;41060;47.510;8.680;2023-07-29T03:28:24;96677.72;;;22.39;53.13
55171;BME280;41060;47.510;8.680;2023-07-29T03:30:52;96673.50;;;22.03;54.33
55171;BME280;41060;47.510;8.680;2023-07-29T03:33:18;96677.84;;;21.91;54.50
55171;BME280;41060;47.510;8.680;2023-07-29T03:35:45;96671.91;;;22.15;53.64
55171;BME280;41060;47.510;8.680;2023-07-29T03:38:12;96683.31;;;22.24;53.13
55171;BME280;41060;47.510;8.680;2023-07-29T03:40:40;96680.81;;;22.03;54.16
55171;BME280;41060;47.510;8.680;2023-07-29T03:43:07;96686.53;;;21.80;55.26
55171;BME280;41060;47.510;8.680;2023-07-29T03:45:35;96681.94;;;21.74;55.42
55171;BME280;41060;47.510;8.680;2023-07-29T03:48:02;96663.34;;;21.85;54.43
55171;BME280;41060;47.510;8.680;2023-07-29T03:50:29;96678.94;;;22.10;53.77
55171;BME280;41060;47.510;8.680;2023-07-29T03:53:02;96694.34;;;22.42;52.95
55171;BME280;41060;47.510;8.680;2023-07-29T03:55:28;96697.88;;;22.62;52.13
55171;BME280;41060;47.510;8.680;2023-07-29T03:57:57;96701.63;;;22.75;51.72
55171;BME280;41060;47.510;8.680;2023-07-29T04:00:25;96713.19;;;22.36;53.76
55171;BME280;41060;47.510;8.680;2023-07-29T04:02:52;96729.91;;;21.98;54.86
55171;BME280;41060;47.510;8.680;2023-07-29T04:05:19;96736.28;;;21.84;55.31
55171;BME280;41060;47.510;8.680;2023-07-29T04:07:46;96688.47;;;22.12;54.27
55171;BME280;41060;47.510;8.680;2023-07-29T04:10:12;96698.03;;;22.15;54.83
55171;BME280;41060;47.510;8.680;2023-07-29T04:12:39;96687.66;;;22.25;53.83
55171;BME280;41060;47.510;8.680;2023-07-29T04:15:08;96694.31;;;22.36;53.56
55171;BME280;41060;47.510;8.680;2023-07-29T04:17:37;96696.84;;;22.50;52.90
55171;BME280;41060;47.510;8.680;2023-07-29T04:20:04;96706.81;;;22.50;53.03
55171;BME280;41060;47.510;8.680;2023-07-29T04:22:35;96701.41;;;22.63;52.61
55171;BME280;41060;47.510;8.680;2023-07-29T04:25:02;96703.69;;;22.73;52.37
55171;BME280;41060;47.510;8.680;2023-07-29T04:27:29;96691.88;;;22.54;53.48
55171;BME280;41060;47.510;8.680;2023-07-29T04:29:57;96686.25;;;22.42;53.14
55171;BME280;41060;47.510;8.680;2023-07-29T04:32:24;96675.47;;;22.49;52.61
55171;BME280;41060;47.510;8.680;2023-07-29T04:34:51;96702.88;;;22.72;52.34
55171;BME280;41060;47.510;8.680;2023-07-29T04:37:18;96707.84;;;22.82;52.10
55171;BME280;41060;47.510;8.680;2023-07-29T04:39:44;96703.91;;;22.91;51.79
55171;BME280;41060;47.510;8.680;2023-07-29T04:42:12;96703.88;;;22.84;52.32
55171;BME280;41060;47.510;8.680;2023-07-29T04:44:39;96691.47;;;22.77;52.09
55171;BME280;41060;47.510;8.680;2023-07-29T04:47:07;96702.03;;;22.85;52.03
55171;BME280;41060;47.510;8.680;2023-07-29T04:49:35;96699.72;;;22.95;51.41
55171;BME280;41060;47.510;8.680;2023-07-29T04:52:02;96702.88;;;22.59;53.43
55171;BME280;41060;47.510;8.680;2023-07-29T04:54:28;96705.91;;;22.16;54.24
55171;BME280;41060;47.510;8.680;2023-07-29T04:56:55;96688.06;;;22.15;54.04
55171;BME280;41060;47.510;8.680;2023-07-29T04:59:22;96687.25;;;22.35;53.45
55171;BME280;41060;47.510;8.680;2023-07-29T05:01:49;96683.56;;;22.55;53.08
55171;BME280;41060;47.510;8.680;2023-07-29T05:04:15;96681.09;;;22.54;53.75
55171;BME280;41060;47.510;8.680;2023-07-29T05:06:44;96680.47;;;22.52;53.43
55171;BME280;41060;47.510;8.680;2023-07-29T05:09:14;96682.94;;;22.67;52.67
55171;BME280;41060;47.510;8.680;2023-07-29T05:11:41;96683.38;;;22.77;52.39
55171;BME280;41060;47.510;8.680;2023-07-29T05:14:09;96694.56;;;22.87;52.44
55171;BME280;41060;47.510;8.680;2023-07-29T05:16:35;96697.03;;;22.95;52.12
55171;BME280;41060;47.510;8.680;2023-07-29T05:19:02;96701.41;;;22.96;52.61
55171;BME280;41060;47.510;8.680;2023-07-29T05:21:29;96697.28;;;22.60;53.57
55171;BME280;41060;47.510;8.680;2023-07-29T05:23:57;96717.94;;;22.20;55.51
55171;BME280;41060;47.510;8.680;2023-07-29T05:26:23;96710.47;;;22.22;54.60
55171;BME280;41060;47.510;8.680;2023-07-29T05:28:51;96715.09;;;22.42;54.27
55171;BME280;41060;47.510;8.680;2023-07-29T05:31:17;96725.09;;;22.61;53.40
55171;BME280;41060;47.510;8.680;2023-07-29T05:33:44;96712.81;;;22.78;52.94
55171;BME280;41060;47.510;8.680;2023-07-29T05:36:11;96721.97;;;22.51;54.63
55171;BME280;41060;47.510;8.680;2023-07-29T05:38:38;96690.50;;;21.97;56.08
55171;BME280;41060;47.510;8.680;2023-07-29T05:41:05;96714.00;;;22.10;55.90
55171;BME280;41060;47.510;8.680;2023-07-29T05:43:32;96728.94;;;22.19;55.73
55171;BME280;41060;47.510;8.680;2023-07-29T05:45:59;96718.59;;;22.29;55.06
55171;BME280;41060;47.510;8.680;2023-07-29T05:48:26;96719.41;;;22.36;54.66
55171;BME280;41060;47.510;8.680;2023-07-29T05:50:53;96717.13;;;22.33;55.38
55171;BME280;41060;47.510;8.680;2023-07-29T05:53:19;96717.56;;;22.30;55.43
55171;BME280;41060;47.510;8.680;2023-07-29T05:55:45;96718.81;;;22.41;55.67
55171;BME280;41060;47.510;8.680;2023-07-29T05:58:14;96716.38;;;22.66;54.31
55171;BME280;41060;47.510;8.680;2023-07-29T06:00:41;96719.47;;;22.82;54.57
55171;BME280;41060;47.510;8.680;2023-07-29T06:03:11;96725.06;;;22.87;54.43
55171;BME280;41060;47.510;8.680;2023-07-29T06:05:38;96724.88;;;22.76;54.70
55171;BME280;41060;47.510;8.680;2023-07-29T06:08:05;96714.91;;;22.83;55.00
55171;BME280;41060;47.510;8.680;2023-07-29T06:10:33;96713.88;;;22.97;55.28
55171;BME280;41060;47.510;8.680;2023-07-29T06:13:00;96719.47;;;22.89;54.97
55171;BME280;41060;47.510;8.680;2023-07-29T06:15:28;96713.22;;;22.95;55.44
55171;BME280;41060;47.510;8.680;2023-07-29T06:17:55;96716.34;;;22.98;55.20
55171;BME280;41060;47.510;8.680;2023-07-29T06:20:22;96719.66;;;23.00;54.72
55171;BME280;41060;47.510;8.680;2023-07-29T06:22:48;96718.84;;;22.87;53.96
55171;BME280;41060;47.510;8.680;2023-07-29T06:25:15;96710.13;;;22.85;54.83
55171;BME280;41060;47.510;8.680;2023-07-29T06:27:42;96709.72;;;22.88;54.53
55171;BME280;41060;47.510;8.680;2023-07-29T06:30:09;96724.44;;;23.05;54.10
55171;BME280;41060;47.510;8.680;2023-07-29T06:32:37;96718.81;;;23.07;54.20
55171;BME280;41060;47.510;8.680;2023-07-29T06:35:04;96716.97;;;23.27;53.82
55171;BME280;41060;47.510;8.680;2023-07-29T06:37:31;96702.81;;;23.31;52.80
55171;BME280;41060;47.510;8.680;2023-07-29T06:39:58;96712.16;;;23.35;52.68
55171;BME280;41060;47.510;8.680;2023-07-29T06:42:25;96715.88;;;23.41;52.87
55171;BME280;41060;47.510;8.680;2023-07-29T06:44:52;96716.66;;;23.55;52.39
55171;BME280;41060;47.510;8.680;2023-07-29T06:47:18;96722.75;;;23.44;51.81
55171;BME280;41060;47.510;8.680;2023-07-29T06:49:48;96716.13;;;23.26;52.12
55171;BME280;41060;47.510;8.680;2023-07-29T06:52:15;96720.03;;;23.44;52.25
55171;BME280;41060;47.510;8.680;2023-07-29T06:54:41;96716.72;;;23.35;52.06
55171;BME280;41060;47.510;8.680;2023-07-29T06:57:08;96727.53;;;23.42;52.81
55171;BME280;41060;47.510;8.680;2023-07-29T06:59:35;96725.84;;;23.47;52.60
55171;BME280;41060;47.510;8.680;2023-07-29T07:02:03;96720.59;;;23.59;52.02
55171;BME280;41060;47.510;8.680;2023-07-29T07:04:30;96726.44;;;23.56;51.22
55171;BME280;41060;47.510;8.680;2023-07-29T07:06:58;96729.75;;;23.58;51.71
55171;BME280;41060;47.510;8.680;2023-07-29T07:09:25;96725.72;;;23.73;51.70
55171;BME280;41060;47.510;8.680;2023-07-29T07:11:52;96721.13;;;23.94;51.30
55171;BME280;41060;47.510;8.680;2023-07-29T07:14:18;96710.69;;;23.97;51.24
55171;BME280;41060;47.510;8.680;2023-07-29T07:16:45;96712.38;;;23.92;51.43
55171;BME280;41060;47.510;8.680;2023-07-29T07:19:12;96716.56;;;23.74;50.90
55171;BME280;41060;47.510;8.680;2023-07-29T07:21:38;96712.03;;;23.75;52.28
55171;BME280;41060;47.510;8.680;2023-07-29T07:24:06;96712.69;;;23.64;51.55
55171;BME280;41060;47.510;8.680;2023-07-29T07:26:34;96709.69;;;23.92;51.90
55171;BME280;41060;47.510;8.680;2023-07-29T07:29:00;96711.88;;;24.08;50.93
55171;BME280;41060;47.510;8.680;2023-07-29T07:31:27;96713.28;;;24.17;50.83
55171;BME280;41060;47.510;8.680;2023-07-29T07:33:54;96711.97;;;24.26;50.46
55171;BME280;41060;47.510;8.680;2023-07-29T07:36:20;96704.09;;;24.18;50.38
55171;BME280;41060;47.510;8.680;2023-07-29T07:38:47;96712.69;;;24.15;50.88
55171;BME280;41060;47.510;8.680;2023-07-29T07:41:15;96689.59;;;24.12;51.49
55171;BME280;41060;47.510;8.680;2023-07-29T07:43:42;96698.13;;;24.47;50.91
55171;BME280;41060;47.510;8.680;2023-07-29T07:46:08;96700.06;;;24.65;50.33
55171;BME280;41060;47.510;8.680;2023-07-29T07:48:35;96691.63;;;24.80;49.41
55171;BME280;41060;47.510;8.680;2023-07-29T07:51:09;96683.97;;;24.95;49.02
55171;BME280;41060;47.510;8.680;2023-07-29T07:53:37;96679.88;;;24.86;49.00
55171;BME280;41060;47.510;8.680;2023-07-29T07:56:03;96688.13;;;24.98;49.63
55171;BME280;41060;47.510;8.680;2023-07-29T07:58:31;96695.56;;;25.02;49.20
55171;BME280;41060;47.510;8.680;2023-07-29T08:01:01;96695.88;;;25.19;49.21
55171;BME280;41060;47.510;8.680;2023-07-29T08:03:27;96692.66;;;25.28;49.09
55171;BME280;41060;47.510;8.680;2023-07-29T08:05:54;96687.06;;;25.42;49.47
55171;BME280;41060;47.510;8.680;2023-07-29T08:08:21;96682.75;;;25.52;48.54
55171;BME280;41060;47.510;8.680;2023-07-29T08:10:48;96679.16;;;25.58;48.60
55171;BME280;41060;47.510;8.680;2023-07-29T08:13:14;96689.97;;;25.22;49.67
55171;BME280;41060;47.510;8.680;2023-07-29T08:15:45;96693.00;;;25.32;49.79
55171;BME280;41060;47.510;8.680;2023-07-29T08:18:12;96692.31;;;25.18;50.29
55171;BME280;41060;47.510;8.680;2023-07-29T08:20:38;96694.53;;;25.28;49.92
55171;BME280;41060;47.510;8.680;2023-07-29T08:23:05;96696.59;;;25.08;49.71
55171;BME280;41060;47.510;8.680;2023-07-29T08:25:32;96695.47;;;25.15;50.25
55171;BME280;41060;47.510;8.680;2023-07-29T08:27:59;96695.03;;;24.93;50.40
55171;BME280;41060;47.510;8.680;2023-07-29T08:30:26;96676.69;;;25.20;49.15
55171;BME280;41060;47.510;8.680;2023-07-29T08:32:54;96677.16;;;25.36;49.29
55171;BME280;41060;47.510;8.680;2023-07-29T08:35:20;96684.94;;;25.44;48.59
55171;BME280;41060;47.510;8.680;2023-07-29T08:37:48;96681.19;;;25.26;48.66
55171;BME280;41060;47.510;8.680;2023-07-29T08:40:14;96684.59;;;25.40;48.27
55171;BME280;41060;47.510;8.680;2023-07-29T08:42:41;96685.50;;;25.34;48.68
55171;BME280;41060;47.510;8.680;2023-07-29T08:45:12;96690.00;;;25.40;48.72
55171;BME280;41060;47.510;8.680;2023-07-29T08:47:39;96692.78;;;25.52;47.68
55171;BME280;41060;47.510;8.680;2023-07-29T08:50:08;96693.03;;;25.87;47.94
55171;BME280;41060;47.510;8.680;2023-07-29T08:52:36;96692.97;;;26.05;47.05
55171;BME280;41060;47.510;8.680;2023-07-29T08:55:04;96691.97;;;25.88;47.72
55171;BME280;41060;47.510;8.680;2023-07-29T08:57:31;96695.25;;;25.53;47.97
55171;BME280;41060;47.510;8.680;2023-07-29T08:59:58;96699.34;;;25.81;46.88
55171;BME280;41060;47.510;8.680;2023-07-29T09:02:25;96703.81;;;26.05;47.56
55171;BME280;41060;47.510;8.680;2023-07-29T09:04:51;96697.66;;;25.98;47.79
55171;BME280;41060;47.510;8.680;2023-07-29T09:07:20;96689.91;;;25.83;47.40
55171;BME280;41060;47.510;8.680;2023-07-29T09:09:47;96696.66;;;25.81;47.29
55171;BME280;41060;47.510;8.680;2023-07-29T09:12:13;96683.97;;;25.93;47.32
55171;BME280;41060;47.510;8.680;2023-07-29T09:14:40;96691.44;;;25.79;46.06
55171;BME280;41060;47.510;8.680;2023-07-29T09:17:09;96696.31;;;25.89;46.97
55171;BME280;41060;47.510;8.680;2023-07-29T09:19:36;96684.25;;;26.03;46.44
55171;BME280;41060;47.510;8.680;2023-07-29T09:22:03;96689.75;;;25.96;45.09
55171;BME280;41060;47.510;8.680;2023-07-29T09:24:31;96687.00;;;26.15;45.55
55171;BME280;41060;47.510;8.680;2023-07-29T09:27:01;96692.69;;;26.25;45.41
55171;BME280;41060;47.510;8.680;2023-07-29T09:29:28;96688.88;;;26.44;45.04
55171;BME280;41060;47.510;8.680;2023-07-29T09:32:17;96690.00;;;26.25;44.07
55171;BME280;41060;47.510;8.680;2023-07-29T09:34:44;96693.38;;;26.20;44.64
55171;BME280;41060;47.510;8.680;2023-07-29T09:37:15;96687.28;;;26.25;44.17
55171;BME280;41060;47.510;8.680;2023-07-29T09:39:45;96675.00;;;26.22;42.31
55171;BME280;41060;47.510;8.680;2023-07-29T09:42:17;96689.00;;;26.49;43.76
55171;BME280;41060;47.510;8.680;2023-07-29T09:44:43;96690.09;;;26.71;44.19
55171;BME280;41060;47.510;8.680;2023-07-29T09:47:18;96689.34;;;27.06;43.71
55171;BME280;41060;47.510;8.680;2023-07-29T09:49:46;96692.19;;;27.11;43.11
55171;BME280;41060;47.510;8.680;2023-07-29T09:52:14;96696.78;;;26.87;41.96
55171;BME280;41060;47.510;8.680;2023-07-29T09:54:42;96695.69;;;26.76;42.81
55171;BME280;41060;47.510;8.680;2023-07-29T09:57:11;96668.88;;;26.80;43.26
55171;BME280;41060;47.510;8.680;2023-07-29T09:59:37;96685.22;;;26.92;42.18
55171;BME280;41060;47.510;8.680;2023-07-29T10:02:04;96690.06;;;27.13;42.26
55171;BME280;41060;47.510;8.680;2023-07-29T10:04:32;96695.00;;;27.28;42.83
55171;BME280;41060;47.510;8.680;2023-07-29T10:06:59;96684.34;;;27.38;41.29
55171;BME280;41060;47.510;8.680;2023-07-29T10:09:26;96686.88;;;27.28;40.93
55171;BME280;41060;47.510;8.680;2023-07-29T10:11:54;96684.00;;;27.22;41.30
55171;BME280;41060;47.510;8.680;2023-07-29T10:14:23;96688.88;;;27.20;41.24
55171;BME280;41060;47.510;8.680;2023-07-29T10:16:50;96675.25;;;27.44;41.33
55171;BME280;41060;47.510;8.680;2023-07-29T10:19:19;96664.84;;;27.64;41.38
55171;BME280;41060;47.510;8.680;2023-07-29T10:21:50;96678.50;;;27.81;40.79
55171;BME280;41060;47.510;8.680;2023-07-29T10:24:19;96681.00;;;27.71;40.47
55171;BME280;41060;47.510;8.680;2023-07-29T10:26:57;96680.72;;;27.84;40.37
55171;BME280;41060;47.510;8.680;2023-07-29T10:29:30;96672.88;;;27.99;40.95
55171;BME280;41060;47.510;8.680;2023-07-29T10:31:57;96673.88;;;27.81;39.97
55171;BME280;41060;47.510;8.680;2023-07-29T10:34:25;96663.66;;;27.60;40.13
55171;BME280;41060;47.510;8.680;2023-07-29T10:36:52;96661.88;;;28.06;40.63
55171;BME280;41060;47.510;8.680;2023-07-29T10:39:20;96663.91;;;28.44;39.65
55171;BME280;41060;47.510;8.680;2023-07-29T10:41:57;96673.22;;;28.76;40.61
55171;BME280;41060;47.510;8.680;2023-07-29T10:44:48;96670.31;;;28.66;39.99
55171;BME280;41060;47.510;8.680;2023-07-29T10:47:21;96669.44;;;28.32;39.69
55171;BME280;41060;47.510;8.680;2023-07-29T10:49:51;96659.81;;;28.13;40.75
55171;BME280;41060;47.510;8.680;2023-07-29T10:52:29;96672.38;;;28.14;41.48
55171;BME280;41060;47.510;8.680;2023-07-29T10:54:56;96668.59;;;28.03;41.21
55171;BME280;41060;47.510;8.680;2023-07-29T10:57:31;96652.06;;;27.93;40.48
55171;BME280;41060;47.510;8.680;2023-07-29T11:00:00;96648.00;;;27.79;41.55
55171;BME280;41060;47.510;8.680;2023-07-29T11:02:30;96643.00;;;28.16;41.02
55171;BME280;41060;47.510;8.680;2023-07-29T11:04:56;96646.72;;;27.98;40.79
55171;BME280;41060;47.510;8.680;2023-07-29T11:07:25;96640.97;;;28.23;40.63
55171;BME280;41060;47.510;8.680;2023-07-29T11:10:00;96641.50;;;28.53;40.89
55171;BME280;41060;47.510;8.680;2023-07-29T11:12:38;96663.66;;;28.28;40.24
55171;BME280;41060;47.510;8.680;2023-07-29T11:15:20;96665.25;;;28.13;40.35
55171;BME280;41060;47.510;8.680;2023-07-29T11:17:49;96656.22;;;27.95;41.25
55171;BME280;41060;47.510;8.680;2023-07-29T11:20:18;96642.19;;;27.75;40.62
55171;BME280;41060;47.510;8.680;2023-07-29T11:22:45;96648.06;;;27.44;41.06
55171;BME280;41060;47.510;8.680;2023-07-29T11:25:13;96651.50;;;27.39;42.05
55171;BME280;41060;47.510;8.680;2023-07-29T11:27:43;96645.38;;;27.32;42.59
55171;BME280;41060;47.510;8.680;2023-07-29T11:30:11;96641.81;;;27.32;43.24
55171;BME280;41060;47.510;8.680;2023-07-29T11:32:40;96642.03;;;27.42;43.96
55171;BME280;41060;47.510;8.680;2023-07-29T11:35:09;96652.31;;;27.40;45.12
55171;BME280;41060;47.510;8.680;2023-07-29T11:37:38;96655.78;;;27.00;44.43
55171;BME280;41060;47.510;8.680;2023-07-29T11:40:06;96650.09;;;26.78;44.92
55171;BME280;41060;47.510;8.680;2023-07-29T11:42:35;96653.63;;;26.79;45.27
55171;BME280;41060;47.510;8.680;2023-07-29T11:45:02;96648.53;;;26.71;45.64
55171;BME280;41060;47.510;8.680;2023-07-29T11:47:31;96643.13;;;26.71;44.75
55171;BME280;41060;47.510;8.680;2023-07-29T11:50:03;96635.69;;;26.55;44.54
55171;BME280;41060;47.510;8.680;2023-07-29T11:52:31;96639.09;;;26.50;44.50
55171;BME280;41060;47.510;8.680;2023-07-29T11:55:00;96626.47;;;26.67;44.59
55171;BME280;41060;47.510;8.680;2023-07-29T11:57:27;96610.66;;;26.76;44.55
55171;BME280;41060;47.510;8.680;2023-07-29T11:59:54;96606.19;;;27.05;44.30
55171;BME280;41060;47.510;8.680;2023-07-29T12:02:20;96607.44;;;27.26;43.91
55171;BME280;41060;47.510;8.680;2023-07-29T12:04:49;96613.38;;;27.11;43.66
55171;BME280;41060;47.510;8.680;2023-07-29T12:07:18;96635.81;;;27.18;44.04
55171;BME280;41060;47.510;8.680;2023-07-29T12:09:46;96654.81;;;27.30;45.82
55171;BME280;41060;47.510;8.680;2023-07-29T12:12:14;96656.97;;;27.28;46.87
55171;BME280;41060;47.510;8.680;2023-07-29T12:14:43;96680.03;;;27.13;47.64
55171;BME280;41060;47.510;8.680;2023-07-29T12:17:12;96683.56;;;27.02;47.47
55171;BME280;41060;47.510;8.680;2023-07-29T12:19:41;96677.31;;;26.90;47.35
55171;BME280;41060;47.510;8.680;2023-07-29T12:22:09;96671.53;;;26.98;47.62
55171;BME280;41060;47.510;8.680;2023-07-29T12:24:39;96670.91;;;26.84;47.40
55171;BME280;41060;47.510;8.680;2023-07-29T12:27:11;96663.13;;;26.88;47.34
55171;BME280;41060;47.510;8.680;2023-07-29T12:29:40;96669.44;;;26.70;48.10
55171;BME280;41060;47.510;8.680;2023-07-29T12:32:13;96689.28;;;26.71;48.38
55171;BME280;41060;47.510;8.680;2023-07-29T12:34:39;96693.09;;;26.81;48.69
55171;BME280;41060;47.510;8.680;2023-07-29T12:37:07;96677.22;;;26.55;48.53
55171;BME280;41060;47.510;8.680;2023-07-29T12:39:35;96714.53;;;26.71;49.13
55171;BME280;41060;47.510;8.680;2023-07-29T12:42:03;96718.91;;;26.72;48.36
55171;BME280;41060;47.510;8.680;2023-07-29T12:44:31;96722.41;;;26.50;48.22
55171;BME280;41060;47.510;8.680;2023-07-29T12:47:00;96725.84;;;26.57;48.57
55171;BME280;41060;47.510;8.680;2023-07-29T12:49:26;96727.34;;;26.41;48.75
55171;BME280;41060;47.510;8.680;2023-07-29T12:51:53;96735.31;;;26.06;49.69
55171;BME280;41060;47.510;8.680;2023-07-29T12:54:20;96737.84;;;26.19;49.76
55171;BME280;41060;47.510;8.680;2023-07-29T12:56:47;96751.06;;;26.16;49.58
55171;BME280;41060;47.510;8.680;2023-07-29T12:59:15;96793.06;;;25.77;48.85
55171;BME280;41060;47.510;8.680;2023-07-29T13:01:44;96782.50;;;25.44;49.12
55171;BME280;41060;47.510;8.680;2023-07-29T13:04:11;96793.66;;;25.36;49.56